sensor_id;sensor_type;location;lat;lon;timestamp;P1;durP1;ratioP1;P2;durP2;ratioP2
27163;SDS011;14685;50.618;7.024;2023-04-29T00:01:47;11.30;;;10.10;;
27163;SDS011;14685;50.618;7.024;2023-04-29T00:04:14;13.07;;;9.93;;
27163;SDS011;14685;50.618;7.024;2023-04-29T00:06:42;11.55;;;9.45;;
27163;SDS011;14685;50.618;7.024;2023-04-29T00:09:09;12.50;;;11.23;;
27163;SDS011;14685;50.618;7.024;2023-04-29T00:11:36;11.65;;;10.45;;
27163;SDS011;14685;50.618;7.024;2023-04-29T00:14:02;13.52;;;11.10;;
27163;SDS011;14685;50.618;7.024;2023-04-29T00:16:29;13.77;;;11.52;;
27163;SDS011;14685;50.618;7.024;2023-04-29T00:18:56;13.93;;;11.73;;
27163;SDS011;14685;50.618;7.024;2023-04-29T00:21:24;13.45;;;11.40;;
27163;SDS011;14685;50.618;7.024;2023-04-29T00:23:53;14.27;;;12.30;;
27163;SDS011;14685;50.618;7.024;2023-04-29T00:26:19;14.40;;;12.43;;
27163;SDS011;14685;50.618;7.024;2023-04-29T00:28:47;14.15;;;11.27;;
27163;SDS011;14685;50.618;7.024;2023-04-29T00:31:13;15.60;;;12.98;;
27163;SDS011;14685;50.618;7.024;2023-04-29T00:33:40;17.42;;;14.73;;
27163;SDS011;14685;50.618;7.024;2023-04-29T00:36:07;16.00;;;12.30;;
27163;SDS011;14685;50.618;7.024;2023-04-29T00:38:34;15.43;;;12.55;;
27163;SDS011;14685;50.618;7.024;2023-04-29T00:41:01;15.77;;;13.00;;
27163;SDS011;14685;50.618;7.024;2023-04-29T00:43:28;15.95;;;13.73;;
27163;SDS011;14685;50.618;7.024;2023-04-29T00:45:55;17.02;;;14.13;;
27163;SDS011;14685;50.618;7.024;2023-04-29T00:48:23;19.42;;;15.25;;
27163;SDS011;14685;50.618;7.024;2023-04-29T00:50:50;18.27;;;15.05;;
27163;SDS011;14685;50.618;7.024;2023-04-29T00:53:17;16.48;;;13.57;;
27163;SDS011;14685;50.618;7.024;2023-04-29T00:55:44;18.70;;;15.13;;
27163;SDS011;14685;50.618;7.024;2023-04-29T00:58:13;20.85;;;16.23;;
27163;SDS011;14685;50.618;7.024;2023-04-29T01:00:40;21.92;;;15.50;;
27163;SDS011;14685;50.618;7.024;2023-04-29T01:03:09;23.45;;;16.23;;
27163;SDS011;14685;50.618;7.024;2023-04-29T01:05:36;20.63;;;16.15;;
27163;SDS011;14685;50.618;7.024;2023-04-29T01:11:15;19.52;;;15.70;;
27163;SDS011;14685;50.618;7.024;2023-04-29T01:13:49;21.25;;;16.10;;
27163;SDS011;14685;50.618;7.024;2023-04-29T01:16:36;22.63;;;16.70;;
27163;SDS011;14685;50.618;7.024;2023-04-29T01:19:15;22.38;;;16.75;;
27163;SDS011;14685;50.618;7.024;2023-04-29T01:22:05;20.15;;;15.43;;
27163;SDS011;14685;50.618;7.024;2023-04-29T01:24:32;19.83;;;14.93;;
27163;SDS011;14685;50.618;7.024;2023-04-29T01:27:36;19.88;;;14.18;;
27163;SDS011;14685;50.618;7.024;2023-04-29T01:30:09;21.73;;;15.32;;
27163;SDS011;14685;50.618;7.024;2023-04-29T01:32:51;19.25;;;14.35;;
27163;SDS011;14685;50.618;7.024;2023-04-29T01:41:32;18.75;;;14.23;;
27163;SDS011;14685;50.618;7.024;2023-04-29T01:44:14;18.60;;;13.32;;
27163;SDS011;14685;50.618;7.024;2023-04-29T01:46:48;14.48;;;11.27;;
27163;SDS011;14685;50.618;7.024;2023-04-29T01:49:23;16.38;;;12.07;;
27163;SDS011;14685;50.618;7.024;2023-04-29T01:51:50;13.52;;;10.85;;
27163;SDS011;14685;50.618;7.024;2023-04-29T01:54:17;16.35;;;10.98;;
27163;SDS011;14685;50.618;7.024;2023-04-29T01:56:44;13.70;;;10.52;;
27163;SDS011;14685;50.618;7.024;2023-04-29T01:59:11;12.73;;;9.85;;
27163;SDS011;14685;50.618;7.024;2023-04-29T02:01:38;14.55;;;10.68;;
27163;SDS011;14685;50.618;7.024;2023-04-29T02:04:05;14.95;;;11.15;;
27163;SDS011;14685;50.618;7.024;2023-04-29T02:06:32;14.73;;;10.50;;
27163;SDS011;14685;50.618;7.024;2023-04-29T02:09:00;12.40;;;9.52;;
27163;SDS011;14685;50.618;7.024;2023-04-29T02:11:27;14.13;;;10.80;;
27163;SDS011;14685;50.618;7.024;2023-04-29T02:13:54;14.88;;;10.15;;
27163;SDS011;14685;50.618;7.024;2023-04-29T02:16:22;13.55;;;10.10;;
27163;SDS011;14685;50.618;7.024;2023-04-29T02:18:49;13.75;;;11.10;;
27163;SDS011;14685;50.618;7.024;2023-04-29T02:21:16;14.02;;;10.05;;
27163;SDS011;14685;50.618;7.024;2023-04-29T02:23:43;14.38;;;9.95;;
27163;SDS011;14685;50.618;7.024;2023-04-29T02:26:10;12.93;;;10.32;;
27163;SDS011;14685;50.618;7.024;2023-04-29T02:28:37;14.52;;;10.23;;
27163;SDS011;14685;50.618;7.024;2023-04-29T02:31:04;13.00;;;10.43;;
27163;SDS011;14685;50.618;7.024;2023-04-29T02:33:31;14.52;;;10.38;;
27163;SDS011;14685;50.618;7.024;2023-04-29T02:35:58;16.52;;;11.30;;
27163;SDS011;14685;50.618;7.024;2023-04-29T02:38:25;15.90;;;10.60;;
27163;SDS011;14685;50.618;7.024;2023-04-29T02:40:52;16.88;;;12.32;;
27163;SDS011;14685;50.618;7.024;2023-04-29T02:43:19;17.70;;;11.50;;
27163;SDS011;14685;50.618;7.024;2023-04-29T02:45:47;18.95;;;12.68;;
27163;SDS011;14685;50.618;7.024;2023-04-29T02:48:14;17.05;;;12.77;;
27163;SDS011;14685;50.618;7.024;2023-04-29T02:50:42;18.52;;;13.32;;
27163;SDS011;14685;50.618;7.024;2023-04-29T02:53:10;14.77;;;12.05;;
27163;SDS011;14685;50.618;7.024;2023-04-29T02:55:36;17.67;;;11.88;;
27163;SDS011;14685;50.618;7.024;2023-04-29T02:58:03;15.25;;;11.32;;
27163;SDS011;14685;50.618;7.024;2023-04-29T03:00:31;16.98;;;12.60;;
27163;SDS011;14685;50.618;7.024;2023-04-29T03:02:58;18.05;;;12.00;;
27163;SDS011;14685;50.618;7.024;2023-04-29T03:05:25;17.85;;;13.20;;
27163;SDS011;14685;50.618;7.024;2023-04-29T03:07:52;17.90;;;12.40;;
27163;SDS011;14685;50.618;7.024;2023-04-29T03:10:19;18.13;;;12.57;;
27163;SDS011;14685;50.618;7.024;2023-04-29T03:12:45;21.95;;;15.13;;
27163;SDS011;14685;50.618;7.024;2023-04-29T03:15:13;21.98;;;14.70;;
27163;SDS011;14685;50.618;7.024;2023-04-29T03:17:40;22.13;;;15.02;;
27163;SDS011;14685;50.618;7.024;2023-04-29T03:20:08;23.88;;;15.82;;
27163;SDS011;14685;50.618;7.024;2023-04-29T03:22:36;25.52;;;15.88;;
27163;SDS011;14685;50.618;7.024;2023-04-29T03:25:03;22.25;;;16.10;;
27163;SDS011;14685;50.618;7.024;2023-04-29T03:27:31;25.70;;;16.48;;
27163;SDS011;14685;50.618;7.024;2023-04-29T03:29:58;24.15;;;16.60;;
27163;SDS011;14685;50.618;7.024;2023-04-29T03:32:25;26.92;;;17.42;;
27163;SDS011;14685;50.618;7.024;2023-04-29T03:34:52;27.65;;;17.23;;
27163;SDS011;14685;50.618;7.024;2023-04-29T03:37:20;24.42;;;17.65;;
27163;SDS011;14685;50.618;7.024;2023-04-29T03:39:47;25.77;;;17.63;;
27163;SDS011;14685;50.618;7.024;2023-04-29T03:42:14;24.85;;;17.10;;
27163;SDS011;14685;50.618;7.024;2023-04-29T03:44:41;24.75;;;17.13;;
27163;SDS011;14685;50.618;7.024;2023-04-29T03:47:08;25.23;;;16.90;;
27163;SDS011;14685;50.618;7.024;2023-04-29T03:49:36;25.42;;;17.25;;
27163;SDS011;14685;50.618;7.024;2023-04-29T03:52:03;26.45;;;18.42;;
27163;SDS011;14685;50.618;7.024;2023-04-29T03:54:31;29.42;;;19.25;;
27163;SDS011;14685;50.618;7.024;2023-04-29T03:56:58;32.53;;;21.17;;
27163;SDS011;14685;50.618;7.024;2023-04-29T03:59:25;30.52;;;19.52;;
27163;SDS011;14685;50.618;7.024;2023-04-29T04:01:53;31.10;;;20.98;;
27163;SDS011;14685;50.618;7.024;2023-04-29T04:04:21;33.03;;;20.83;;
27163;SDS011;14685;50.618;7.024;2023-04-29T04:06:49;35.60;;;22.25;;
27163;SDS011;14685;50.618;7.024;2023-04-29T04:09:17;34.10;;;21.55;;
27163;SDS011;14685;50.618;7.024;2023-04-29T04:11:44;36.03;;;22.25;;
27163;SDS011;14685;50.618;7.024;2023-04-29T04:14:12;36.25;;;23.20;;
27163;SDS011;14685;50.618;7.024;2023-04-29T04:16:39;40.10;;;24.70;;
27163;SDS011;14685;50.618;7.024;2023-04-29T04:19:06;41.78;;;25.90;;
27163;SDS011;14685;50.618;7.024;2023-04-29T04:21:33;38.08;;;25.67;;
27163;SDS011;14685;50.618;7.024;2023-04-29T04:24:00;40.97;;;27.00;;
27163;SDS011;14685;50.618;7.024;2023-04-29T04:26:27;39.40;;;28.23;;
27163;SDS011;14685;50.618;7.024;2023-04-29T04:28:54;47.47;;;31.63;;
27163;SDS011;14685;50.618;7.024;2023-04-29T04:31:22;49.00;;;30.67;;
27163;SDS011;14685;50.618;7.024;2023-04-29T04:33:50;47.00;;;30.45;;
27163;SDS011;14685;50.618;7.024;2023-04-29T04:36:17;47.05;;;30.33;;
27163;SDS011;14685;50.618;7.024;2023-04-29T04:38:44;53.53;;;33.08;;
27163;SDS011;14685;50.618;7.024;2023-04-29T04:41:14;52.88;;;33.17;;
27163;SDS011;14685;50.618;7.024;2023-04-29T04:43:41;48.22;;;31.58;;
27163;SDS011;14685;50.618;7.024;2023-04-29T04:46:10;52.15;;;32.90;;
27163;SDS011;14685;50.618;7.024;2023-04-29T04:48:38;51.45;;;33.00;;
27163;SDS011;14685;50.618;7.024;2023-04-29T04:51:12;57.20;;;34.33;;
27163;SDS011;14685;50.618;7.024;2023-04-29T04:53:39;56.08;;;33.70;;
27163;SDS011;14685;50.618;7.024;2023-04-29T04:56:06;61.88;;;36.25;;
27163;SDS011;14685;50.618;7.024;2023-04-29T04:58:33;61.88;;;37.65;;
27163;SDS011;14685;50.618;7.024;2023-04-29T05:01:00;65.07;;;37.60;;
27163;SDS011;14685;50.618;7.024;2023-04-29T05:03:27;63.72;;;36.67;;
27163;SDS011;14685;50.618;7.024;2023-04-29T05:05:55;64.82;;;38.10;;
27163;SDS011;14685;50.618;7.024;2023-04-29T05:08:23;71.43;;;40.35;;
27163;SDS011;14685;50.618;7.024;2023-04-29T05:10:50;71.03;;;41.05;;
27163;SDS011;14685;50.618;7.024;2023-04-29T05:13:19;77.97;;;41.33;;
27163;SDS011;14685;50.618;7.024;2023-04-29T05:15:48;73.75;;;41.92;;
27163;SDS011;14685;50.618;7.024;2023-04-29T05:18:14;78.88;;;41.35;;
27163;SDS011;14685;50.618;7.024;2023-04-29T05:20:41;80.90;;;43.22;;
27163;SDS011;14685;50.618;7.024;2023-04-29T05:23:08;73.70;;;40.63;;
27163;SDS011;14685;50.618;7.024;2023-04-29T05:25:35;82.40;;;41.97;;
27163;SDS011;14685;50.618;7.024;2023-04-29T05:28:02;82.75;;;42.78;;
27163;SDS011;14685;50.618;7.024;2023-04-29T05:30:32;78.22;;;40.80;;
27163;SDS011;14685;50.618;7.024;2023-04-29T05:32:59;77.75;;;42.42;;
27163;SDS011;14685;50.618;7.024;2023-04-29T05:35:27;75.35;;;41.50;;
27163;SDS011;14685;50.618;7.024;2023-04-29T05:37:54;75.25;;;41.15;;
27163;SDS011;14685;50.618;7.024;2023-04-29T05:40:22;75.80;;;41.60;;
27163;SDS011;14685;50.618;7.024;2023-04-29T05:42:48;72.88;;;38.78;;
27163;SDS011;14685;50.618;7.024;2023-04-29T05:45:16;65.18;;;37.13;;
27163;SDS011;14685;50.618;7.024;2023-04-29T05:47:47;58.40;;;33.90;;
27163;SDS011;14685;50.618;7.024;2023-04-29T05:50:14;49.45;;;28.13;;
27163;SDS011;14685;50.618;7.024;2023-04-29T05:52:41;47.15;;;27.75;;
27163;SDS011;14685;50.618;7.024;2023-04-29T05:55:08;43.03;;;24.15;;
27163;SDS011;14685;50.618;7.024;2023-04-29T05:57:35;42.20;;;23.80;;
27163;SDS011;14685;50.618;7.024;2023-04-29T06:00:02;37.25;;;23.05;;
27163;SDS011;14685;50.618;7.024;2023-04-29T06:02:32;42.83;;;24.45;;
27163;SDS011;14685;50.618;7.024;2023-04-29T06:05:04;39.92;;;22.90;;
27163;SDS011;14685;50.618;7.024;2023-04-29T06:07:33;35.40;;;22.02;;
27163;SDS011;14685;50.618;7.024;2023-04-29T06:10:01;41.15;;;23.73;;
27163;SDS011;14685;50.618;7.024;2023-04-29T06:12:28;36.83;;;22.25;;
27163;SDS011;14685;50.618;7.024;2023-04-29T06:14:58;39.22;;;23.45;;
27163;SDS011;14685;50.618;7.024;2023-04-29T06:17:27;39.40;;;22.38;;
27163;SDS011;14685;50.618;7.024;2023-04-29T06:19:54;38.97;;;23.05;;
27163;SDS011;14685;50.618;7.024;2023-04-29T06:22:21;40.70;;;24.20;;
27163;SDS011;14685;50.618;7.024;2023-04-29T06:24:49;36.92;;;21.67;;
27163;SDS011;14685;50.618;7.024;2023-04-29T06:27:18;36.83;;;22.00;;
27163;SDS011;14685;50.618;7.024;2023-04-29T06:29:45;35.85;;;22.20;;
27163;SDS011;14685;50.618;7.024;2023-04-29T06:32:12;37.47;;;22.52;;
27163;SDS011;14685;50.618;7.024;2023-04-29T06:34:39;36.25;;;21.90;;
27163;SDS011;14685;50.618;7.024;2023-04-29T06:37:07;34.38;;;21.60;;
27163;SDS011;14685;50.618;7.024;2023-04-29T06:39:34;32.40;;;20.02;;
27163;SDS011;14685;50.618;7.024;2023-04-29T06:42:05;31.00;;;19.33;;
27163;SDS011;14685;50.618;7.024;2023-04-29T06:44:33;34.13;;;19.83;;
27163;SDS011;14685;50.618;7.024;2023-04-29T06:47:00;33.45;;;21.02;;
27163;SDS011;14685;50.618;7.024;2023-04-29T06:49:28;33.03;;;21.20;;
27163;SDS011;14685;50.618;7.024;2023-04-29T06:51:54;32.42;;;20.23;;
27163;SDS011;14685;50.618;7.024;2023-04-29T06:54:21;31.15;;;18.45;;
27163;SDS011;14685;50.618;7.024;2023-04-29T06:56:48;29.95;;;18.52;;
27163;SDS011;14685;50.618;7.024;2023-04-29T06:59:15;28.83;;;18.88;;
27163;SDS011;14685;50.618;7.024;2023-04-29T07:01:42;26.60;;;17.27;;
27163;SDS011;14685;50.618;7.024;2023-04-29T07:04:13;29.08;;;17.63;;
27163;SDS011;14685;50.618;7.024;2023-04-29T07:06:40;28.73;;;18.38;;
27163;SDS011;14685;50.618;7.024;2023-04-29T07:09:12;27.30;;;16.80;;
27163;SDS011;14685;50.618;7.024;2023-04-29T07:11:40;29.63;;;17.48;;
27163;SDS011;14685;50.618;7.024;2023-04-29T07:14:08;24.25;;;16.40;;
27163;SDS011;14685;50.618;7.024;2023-04-29T07:16:34;26.83;;;17.00;;
27163;SDS011;14685;50.618;7.024;2023-04-29T07:19:02;26.27;;;16.70;;
27163;SDS011;14685;50.618;7.024;2023-04-29T07:21:29;26.98;;;16.67;;
27163;SDS011;14685;50.618;7.024;2023-04-29T07:23:56;24.40;;;16.05;;
27163;SDS011;14685;50.618;7.024;2023-04-29T07:26:26;23.83;;;15.63;;
27163;SDS011;14685;50.618;7.024;2023-04-29T07:28:53;21.83;;;14.45;;
27163;SDS011;14685;50.618;7.024;2023-04-29T07:31:24;20.58;;;13.82;;
27163;SDS011;14685;50.618;7.024;2023-04-29T07:33:51;20.65;;;14.02;;
27163;SDS011;14685;50.618;7.024;2023-04-29T07:36:18;20.73;;;14.07;;
27163;SDS011;14685;50.618;7.024;2023-04-29T07:38:46;18.05;;;12.75;;
27163;SDS011;14685;50.618;7.024;2023-04-29T07:41:13;22.13;;;13.30;;
27163;SDS011;14685;50.618;7.024;2023-04-29T07:43:39;18.17;;;12.35;;
27163;SDS011;14685;50.618;7.024;2023-04-29T07:46:09;16.67;;;11.55;;
27163;SDS011;14685;50.618;7.024;2023-04-29T07:48:37;17.02;;;12.23;;
27163;SDS011;14685;50.618;7.024;2023-04-29T07:51:05;14.80;;;10.80;;
27163;SDS011;14685;50.618;7.024;2023-04-29T07:53:32;16.65;;;11.20;;
27163;SDS011;14685;50.618;7.024;2023-04-29T07:56:03;16.92;;;12.13;;
27163;SDS011;14685;50.618;7.024;2023-04-29T07:58:31;15.85;;;11.40;;
27163;SDS011;14685;50.618;7.024;2023-04-29T08:01:06;18.25;;;12.43;;
27163;SDS011;14685;50.618;7.024;2023-04-29T08:03:35;19.77;;;12.88;;
27163;SDS011;14685;50.618;7.024;2023-04-29T08:06:06;16.80;;;11.60;;
27163;SDS011;14685;50.618;7.024;2023-04-29T08:08:33;17.42;;;12.15;;
27163;SDS011;14685;50.618;7.024;2023-04-29T08:11:00;19.95;;;13.95;;
27163;SDS011;14685;50.618;7.024;2023-04-29T08:13:27;19.58;;;14.07;;
27163;SDS011;14685;50.618;7.024;2023-04-29T08:15:54;16.88;;;12.48;;
27163;SDS011;14685;50.618;7.024;2023-04-29T08:18:21;21.77;;;12.38;;
27163;SDS011;14685;50.618;7.024;2023-04-29T08:20:48;19.40;;;12.13;;
27163;SDS011;14685;50.618;7.024;2023-04-29T08:23:15;15.05;;;10.85;;
27163;SDS011;14685;50.618;7.024;2023-04-29T08:25:42;15.88;;;10.88;;
27163;SDS011;14685;50.618;7.024;2023-04-29T08:28:09;18.88;;;12.18;;
27163;SDS011;14685;50.618;7.024;2023-04-29T08:30:41;17.55;;;12.55;;
27163;SDS011;14685;50.618;7.024;2023-04-29T08:33:10;18.92;;;13.27;;
27163;SDS011;14685;50.618;7.024;2023-04-29T08:35:39;18.58;;;13.25;;
27163;SDS011;14685;50.618;7.024;2023-04-29T08:38:07;20.50;;;14.93;;
27163;SDS011;14685;50.618;7.024;2023-04-29T08:40:35;21.67;;;14.82;;
27163;SDS011;14685;50.618;7.024;2023-04-29T08:43:13;21.50;;;15.43;;
27163;SDS011;14685;50.618;7.024;2023-04-29T08:45:41;26.95;;;16.88;;
27163;SDS011;14685;50.618;7.024;2023-04-29T08:48:08;21.48;;;15.80;;
27163;SDS011;14685;50.618;7.024;2023-04-29T08:50:39;25.02;;;17.42;;
27163;SDS011;14685;50.618;7.024;2023-04-29T08:53:07;29.40;;;17.77;;
27163;SDS011;14685;50.618;7.024;2023-04-29T08:55:35;23.58;;;17.38;;
27163;SDS011;14685;50.618;7.024;2023-04-29T08:58:09;26.13;;;17.65;;
27163;SDS011;14685;50.618;7.024;2023-04-29T09:00:39;25.65;;;18.50;;
27163;SDS011;14685;50.618;7.024;2023-04-29T09:03:13;28.23;;;18.33;;
27163;SDS011;14685;50.618;7.024;2023-04-29T09:05:48;26.92;;;18.40;;
27163;SDS011;14685;50.618;7.024;2023-04-29T09:08:18;28.00;;;18.05;;
27163;SDS011;14685;50.618;7.024;2023-04-29T09:10:50;26.92;;;18.15;;
27163;SDS011;14685;50.618;7.024;2023-04-29T09:13:26;25.05;;;17.77;;
27163;SDS011;14685;50.618;7.024;2023-04-29T09:15:59;26.58;;;18.52;;
27163;SDS011;14685;50.618;7.024;2023-04-29T09:18:42;28.23;;;19.27;;
27163;SDS011;14685;50.618;7.024;2023-04-29T09:21:20;25.13;;;18.88;;
27163;SDS011;14685;50.618;7.024;2023-04-29T09:23:52;24.15;;;17.55;;
27163;SDS011;14685;50.618;7.024;2023-04-29T09:26:22;24.65;;;18.85;;
27163;SDS011;14685;50.618;7.024;2023-04-29T09:29:09;24.15;;;17.63;;
27163;SDS011;14685;50.618;7.024;2023-04-29T09:31:39;24.15;;;16.98;;
27163;SDS011;14685;50.618;7.024;2023-04-29T09:34:10;25.27;;;16.90;;
27163;SDS011;14685;50.618;7.024;2023-04-29T09:36:48;22.52;;;15.88;;
27163;SDS011;14685;50.618;7.024;2023-04-29T09:39:24;24.83;;;16.65;;
27163;SDS011;14685;50.618;7.024;2023-04-29T09:44:23;23.35;;;14.93;;
27163;SDS011;14685;50.618;7.024;2023-04-29T09:46:59;22.58;;;15.05;;
27163;SDS011;14685;50.618;7.024;2023-04-29T09:49:29;20.48;;;14.88;;
27163;SDS011;14685;50.618;7.024;2023-04-29T09:52:07;18.60;;;14.23;;
27163;SDS011;14685;50.618;7.024;2023-04-29T09:54:37;19.08;;;13.80;;
27163;SDS011;14685;50.618;7.024;2023-04-29T09:57:06;20.30;;;14.13;;
27163;SDS011;14685;50.618;7.024;2023-04-29T09:59:36;17.95;;;14.32;;
27163;SDS011;14685;50.618;7.024;2023-04-29T10:02:23;18.95;;;14.90;;
27163;SDS011;14685;50.618;7.024;2023-04-29T10:04:53;19.85;;;14.43;;
27163;SDS011;14685;50.618;7.024;2023-04-29T10:07:27;17.98;;;13.90;;
27163;SDS011;14685;50.618;7.024;2023-04-29T10:09:56;20.92;;;13.40;;
27163;SDS011;14685;50.618;7.024;2023-04-29T10:12:24;17.58;;;13.23;;
27163;SDS011;14685;50.618;7.024;2023-04-29T10:17:48;21.02;;;16.00;;
27163;SDS011;14685;50.618;7.024;2023-04-29T10:20:23;22.90;;;16.52;;
27163;SDS011;14685;50.618;7.024;2023-04-29T10:22:53;23.00;;;15.95;;
27163;SDS011;14685;50.618;7.024;2023-04-29T10:25:23;28.73;;;16.70;;
27163;SDS011;14685;50.618;7.024;2023-04-29T10:27:53;25.58;;;16.77;;
27163;SDS011;14685;50.618;7.024;2023-04-29T10:30:25;22.10;;;16.35;;
27163;SDS011;14685;50.618;7.024;2023-04-29T10:32:52;19.85;;;15.02;;
27163;SDS011;14685;50.618;7.024;2023-04-29T10:35:27;24.50;;;16.33;;
27163;SDS011;14685;50.618;7.024;2023-04-29T10:37:54;19.92;;;15.80;;
27163;SDS011;14685;50.618;7.024;2023-04-29T10:40:27;22.40;;;16.02;;
27163;SDS011;14685;50.618;7.024;2023-04-29T10:43:02;23.60;;;17.13;;
27163;SDS011;14685;50.618;7.024;2023-04-29T10:45:30;25.40;;;17.27;;
27163;SDS011;14685;50.618;7.024;2023-04-29T10:51:26;22.02;;;16.95;;
27163;SDS011;14685;50.618;7.024;2023-04-29T10:53:22;20.63;;;16.27;;
27163;SDS011;14685;50.618;7.024;2023-04-29T10:55:53;21.85;;;17.27;;
27163;SDS011;14685;50.618;7.024;2023-04-29T10:58:44;23.50;;;17.23;;
27163;SDS011;14685;50.618;7.024;2023-04-29T11:01:17;22.67;;;16.33;;
27163;SDS011;14685;50.618;7.024;2023-04-29T11:04:06;20.02;;;15.25;;
27163;SDS011;14685;50.618;7.024;2023-04-29T11:09:08;20.75;;;15.20;;
27163;SDS011;14685;50.618;7.024;2023-04-29T11:11:58;17.88;;;14.02;;
27163;SDS011;14685;50.618;7.024;2023-04-29T11:14:33;21.05;;;14.25;;
27163;SDS011;14685;50.618;7.024;2023-04-29T11:17:15;21.65;;;15.00;;
27163;SDS011;14685;50.618;7.024;2023-04-29T11:19:46;18.40;;;12.75;;
27163;SDS011;14685;50.618;7.024;2023-04-29T11:27:31;21.75;;;15.55;;
27163;SDS011;14685;50.618;7.024;2023-04-29T11:29:58;23.52;;;15.32;;
27163;SDS011;14685;50.618;7.024;2023-04-29T11:32:29;25.48;;;16.77;;
27163;SDS011;14685;50.618;7.024;2023-04-29T11:35:14;25.33;;;16.90;;
27163;SDS011;14685;50.618;7.024;2023-04-29T11:37:45;24.50;;;16.80;;
27163;SDS011;14685;50.618;7.024;2023-04-29T11:40:13;22.63;;;15.82;;
27163;SDS011;14685;50.618;7.024;2023-04-29T11:42:43;24.05;;;16.98;;
27163;SDS011;14685;50.618;7.024;2023-04-29T11:45:18;25.45;;;16.33;;
27163;SDS011;14685;50.618;7.024;2023-04-29T11:47:46;24.33;;;16.20;;
27163;SDS011;14685;50.618;7.024;2023-04-29T11:50:15;28.42;;;17.35;;
27163;SDS011;14685;50.618;7.024;2023-04-29T11:52:47;25.77;;;18.05;;
27163;SDS011;14685;50.618;7.024;2023-04-29T11:55:17;27.70;;;17.65;;
27163;SDS011;14685;50.618;7.024;2023-04-29T11:57:47;26.88;;;17.35;;
27163;SDS011;14685;50.618;7.024;2023-04-29T12:00:15;29.08;;;20.65;;
27163;SDS011;14685;50.618;7.024;2023-04-29T12:02:45;26.58;;;19.65;;
27163;SDS011;14685;50.618;7.024;2023-04-29T12:05:14;30.10;;;19.80;;
27163;SDS011;14685;50.618;7.024;2023-04-29T12:07:43;29.30;;;21.42;;
27163;SDS011;14685;50.618;7.024;2023-04-29T12:10:11;33.58;;;20.77;;
27163;SDS011;14685;50.618;7.024;2023-04-29T12:12:39;33.67;;;23.00;;
27163;SDS011;14685;50.618;7.024;2023-04-29T12:15:07;36.78;;;24.98;;
27163;SDS011;14685;50.618;7.024;2023-04-29T12:17:36;39.85;;;25.27;;
27163;SDS011;14685;50.618;7.024;2023-04-29T12:20:03;41.38;;;27.70;;
27163;SDS011;14685;50.618;7.024;2023-04-29T12:22:33;44.45;;;28.10;;
27163;SDS011;14685;50.618;7.024;2023-04-29T12:25:04;44.58;;;28.27;;
27163;SDS011;14685;50.618;7.024;2023-04-29T12:27:34;38.03;;;25.33;;
27163;SDS011;14685;50.618;7.024;2023-04-29T12:30:05;41.17;;;26.33;;
27163;SDS011;14685;50.618;7.024;2023-04-29T12:32:35;36.80;;;24.00;;
27163;SDS011;14685;50.618;7.024;2023-04-29T12:35:02;39.40;;;24.63;;
27163;SDS011;14685;50.618;7.024;2023-04-29T12:37:30;36.80;;;23.80;;
27163;SDS011;14685;50.618;7.024;2023-04-29T12:39:57;37.42;;;23.35;;
27163;SDS011;14685;50.618;7.024;2023-04-29T12:42:24;36.47;;;22.20;;
27163;SDS011;14685;50.618;7.024;2023-04-29T12:44:58;31.25;;;21.30;;
27163;SDS011;14685;50.618;7.024;2023-04-29T12:47:30;25.38;;;19.40;;
27163;SDS011;14685;50.618;7.024;2023-04-29T12:49:59;25.08;;;19.10;;
27163;SDS011;14685;50.618;7.024;2023-04-29T12:52:26;27.85;;;21.15;;
27163;SDS011;14685;50.618;7.024;2023-04-29T12:57:42;27.80;;;20.95;;
27163;SDS011;14685;50.618;7.024;2023-04-29T13:00:09;30.42;;;20.52;;
27163;SDS011;14685;50.618;7.024;2023-04-29T13:02:37;25.63;;;18.33;;
27163;SDS011;14685;50.618;7.024;2023-04-29T13:05:04;27.65;;;20.77;;
27163;SDS011;14685;50.618;7.024;2023-04-29T13:07:31;31.23;;;22.17;;
27163;SDS011;14685;50.618;7.024;2023-04-29T13:09:58;34.50;;;25.30;;
27163;SDS011;14685;50.618;7.024;2023-04-29T13:12:25;37.28;;;29.05;;
27163;SDS011;14685;50.618;7.024;2023-04-29T13:14:52;38.00;;;29.60;;
27163;SDS011;14685;50.618;7.024;2023-04-29T13:17:23;39.83;;;29.92;;
27163;SDS011;14685;50.618;7.024;2023-04-29T13:19:51;39.30;;;29.35;;
27163;SDS011;14685;50.618;7.024;2023-04-29T13:22:19;40.13;;;29.75;;
27163;SDS011;14685;50.618;7.024;2023-04-29T13:24:47;43.42;;;30.83;;
27163;SDS011;14685;50.618;7.024;2023-04-29T13:27:14;42.28;;;29.20;;
27163;SDS011;14685;50.618;7.024;2023-04-29T13:29:41;44.92;;;32.17;;
27163;SDS011;14685;50.618;7.024;2023-04-29T13:32:08;40.47;;;30.27;;
27163;SDS011;14685;50.618;7.024;2023-04-29T13:34:35;44.95;;;31.98;;
27163;SDS011;14685;50.618;7.024;2023-04-29T13:37:02;41.97;;;30.35;;
27163;SDS011;14685;50.618;7.024;2023-04-29T13:39:30;45.45;;;32.10;;
27163;SDS011;14685;50.618;7.024;2023-04-29T13:41:57;42.33;;;30.77;;
27163;SDS011;14685;50.618;7.024;2023-04-29T13:44:26;48.78;;;32.38;;
27163;SDS011;14685;50.618;7.024;2023-04-29T13:47:11;44.38;;;30.88;;
27163;SDS011;14685;50.618;7.024;2023-04-29T13:49:39;49.08;;;32.35;;
27163;SDS011;14685;50.618;7.024;2023-04-29T13:52:26;45.72;;;31.52;;
27163;SDS011;14685;50.618;7.024;2023-04-29T13:54:58;48.20;;;32.03;;
27163;SDS011;14685;50.618;7.024;2023-04-29T13:57:45;47.28;;;33.78;;
27163;SDS011;14685;50.618;7.024;2023-04-29T14:00:16;50.97;;;33.60;;
27163;SDS011;14685;50.618;7.024;2023-04-29T14:03:04;51.53;;;34.72;;
27163;SDS011;14685;50.618;7.024;2023-04-29T14:05:33;46.22;;;31.23;;
27163;SDS011;14685;50.618;7.024;2023-04-29T14:08:01;43.95;;;29.15;;
27163;SDS011;14685;50.618;7.024;2023-04-29T14:10:28;55.33;;;34.22;;
27163;SDS011;14685;50.618;7.024;2023-04-29T14:12:56;47.28;;;31.63;;
27163;SDS011;14685;50.618;7.024;2023-04-29T14:15:23;56.03;;;34.30;;
27163;SDS011;14685;50.618;7.024;2023-04-29T14:17:50;59.80;;;37.08;;
27163;SDS011;14685;50.618;7.024;2023-04-29T14:20:32;65.97;;;39.80;;
27163;SDS011;14685;50.618;7.024;2023-04-29T14:22:59;77.15;;;45.75;;
27163;SDS011;14685;50.618;7.024;2023-04-29T14:25:26;76.50;;;45.97;;
27163;SDS011;14685;50.618;7.024;2023-04-29T14:27:55;76.75;;;45.80;;
27163;SDS011;14685;50.618;7.024;2023-04-29T14:30:22;78.18;;;47.25;;
27163;SDS011;14685;50.618;7.024;2023-04-29T14:32:51;81.32;;;48.05;;
27163;SDS011;14685;50.618;7.024;2023-04-29T14:35:18;83.18;;;50.33;;
27163;SDS011;14685;50.618;7.024;2023-04-29T14:37:45;84.68;;;50.78;;
27163;SDS011;14685;50.618;7.024;2023-04-29T14:40:12;80.47;;;49.33;;
27163;SDS011;14685;50.618;7.024;2023-04-29T14:42:39;83.78;;;49.40;;
27163;SDS011;14685;50.618;7.024;2023-04-29T14:45:07;88.53;;;52.60;;
27163;SDS011;14685;50.618;7.024;2023-04-29T14:47:35;84.95;;;52.33;;
27163;SDS011;14685;50.618;7.024;2023-04-29T14:50:02;85.38;;;52.70;;
27163;SDS011;14685;50.618;7.024;2023-04-29T14:52:38;79.55;;;48.78;;
27163;SDS011;14685;50.618;7.024;2023-04-29T14:55:05;76.13;;;47.30;;
27163;SDS011;14685;50.618;7.024;2023-04-29T14:57:34;76.10;;;50.10;;
27163;SDS011;14685;50.618;7.024;2023-04-29T15:00:01;78.60;;;49.50;;
27163;SDS011;14685;50.618;7.024;2023-04-29T15:02:29;80.90;;;49.88;;